sensor_id;sensor_type;location;lat;lon;timestamp;temperature;humidity
20672;DHT22;10495;50.922;4.760;2023-08-17T00:01:43;21.70;77.20
20672;DHT22;10495;50.922;4.760;2023-08-17T00:04:09;21.60;77.10
20672;DHT22;10495;50.922;4.760;2023-08-17T00:06:34;21.60;77.10
20672;DHT22;10495;50.922;4.760;2023-08-17T00:09:00;21.70;77.00
20672;DHT22;10495;50.922;4.760;2023-08-17T00:11:26;21.70;76.70
20672;DHT22;10495;50.922;4.760;2023-08-17T00:13:51;21.60;76.60
20672;DHT22;10495;50.922;4.760;2023-08-17T00:16:17;21.60;77.20
20672;DHT22;10495;50.922;4.760;2023-08-17T00:18:43;21.60;76.50
20672;DHT22;10495;50.922;4.760;2023-08-17T00:21:09;21.60;76.10
20672;DHT22;10495;50.922;4.760;2023-08-17T00:23:35;21.60;76.10
20672;DHT22;10495;50.922;4.760;2023-08-17T00:26:00;21.60;76.10
20672;DHT22;10495;50.922;4.760;2023-08-17T00:28:26;21.50;76.40
20672;DHT22;10495;50.922;4.760;2023-08-17T00:30:52;21.40;76.60
20672;DHT22;10495;50.922;4.760;2023-08-17T00:33:18;21.40;76.60
20672;DHT22;10495;50.922;4.760;2023-08-17T00:35:43;21.40;76.80
20672;DHT22;10495;50.922;4.760;2023-08-17T00:38:11;21.30;76.70
20672;DHT22;10495;50.922;4.760;2023-08-17T00:40:37;21.30;76.70
20672;DHT22;10495;50.922;4.760;2023-08-17T00:43:03;21.20;76.60
20672;DHT22;10495;50.922;4.760;2023-08-17T00:45:29;21.10;76.80
20672;DHT22;10495;50.922;4.760;2023-08-17T00:47:56;21.10;77.00
20672;DHT22;10495;50.922;4.760;2023-08-17T00:50:23;21.10;77.00
20672;DHT22;10495;50.922;4.760;2023-08-17T00:52:49;21.10;77.60
20672;DHT22;10495;50.922;4.760;2023-08-17T00:55:16;21.10;77.90
20672;DHT22;10495;50.922;4.760;2023-08-17T00:57:42;21.10;77.90
20672;DHT22;10495;50.922;4.760;2023-08-17T01:00:10;21.10;78.10
20672;DHT22;10495;50.922;4.760;2023-08-17T01:02:37;21.10;78.20
20672;DHT22;10495;50.922;4.760;2023-08-17T01:05:03;21.20;78.30
20672;DHT22;10495;50.922;4.760;2023-08-17T01:07:31;21.20;78.30
20672;DHT22;10495;50.922;4.760;2023-08-17T01:09:57;21.20;78.10
20672;DHT22;10495;50.922;4.760;2023-08-17T01:17:54;21.30;77.50
20672;DHT22;10495;50.922;4.760;2023-08-17T01:20:17;21.30;77.80
20672;DHT22;10495;50.922;4.760;2023-08-17T01:22:46;21.40;77.30
20672;DHT22;10495;50.922;4.760;2023-08-17T01:25:14;21.50;77.20
20672;DHT22;10495;50.922;4.760;2023-08-17T01:27:43;21.40;77.20
20672;DHT22;10495;50.922;4.760;2023-08-17T01:30:12;21.50;77.10
20672;DHT22;10495;50.922;4.760;2023-08-17T01:32:47;21.40;77.10
20672;DHT22;10495;50.922;4.760;2023-08-17T01:38:04;21.50;77.50
20672;DHT22;10495;50.922;4.760;2023-08-17T01:40:34;21.40;77.90
20672;DHT22;10495;50.922;4.760;2023-08-17T01:43:01;21.30;78.00
20672;DHT22;10495;50.922;4.760;2023-08-17T01:45:27;21.20;78.40
20672;DHT22;10495;50.922;4.760;2023-08-17T01:47:54;21.20;78.60
20672;DHT22;10495;50.922;4.760;2023-08-17T01:50:20;21.20;78.70
20672;DHT22;10495;50.922;4.760;2023-08-17T01:52:45;21.20;78.80
20672;DHT22;10495;50.922;4.760;2023-08-17T01:55:11;21.20;79.10
20672;DHT22;10495;50.922;4.760;2023-08-17T01:57:37;21.20;79.40
20672;DHT22;10495;50.922;4.760;2023-08-17T02:00:04;21.20;79.50
20672;DHT22;10495;50.922;4.760;2023-08-17T02:02:31;21.10;79.80
20672;DHT22;10495;50.922;4.760;2023-08-17T02:04:56;21.10;80.20
20672;DHT22;10495;50.922;4.760;2023-08-17T02:07:22;20.90;80.90
20672;DHT22;10495;50.922;4.760;2023-08-17T02:09:48;21.00;80.30
20672;DHT22;10495;50.922;4.760;2023-08-17T02:12:13;21.10;80.10
20672;DHT22;10495;50.922;4.760;2023-08-17T02:14:39;21.00;80.10
20672;DHT22;10495;50.922;4.760;2023-08-17T02:17:05;21.10;80.00
20672;DHT22;10495;50.922;4.760;2023-08-17T02:19:31;21.00;80.00
20672;DHT22;10495;50.922;4.760;2023-08-17T02:21:58;20.80;80.30
20672;DHT22;10495;50.922;4.760;2023-08-17T02:24:24;20.90;80.40
20672;DHT22;10495;50.922;4.760;2023-08-17T02:26:50;20.80;80.40
20672;DHT22;10495;50.922;4.760;2023-08-17T02:29:16;20.70;80.50
20672;DHT22;10495;50.922;4.760;2023-08-17T02:31:41;20.60;80.70
20672;DHT22;10495;50.922;4.760;2023-08-17T02:34:07;20.60;80.80
20672;DHT22;10495;50.922;4.760;2023-08-17T02:36:33;20.50;80.90
20672;DHT22;10495;50.922;4.760;2023-08-17T02:38:59;20.50;81.00
20672;DHT22;10495;50.922;4.760;2023-08-17T02:41:24;20.40;81.20
20672;DHT22;10495;50.922;4.760;2023-08-17T02:43:50;20.30;82.00
20672;DHT22;10495;50.922;4.760;2023-08-17T02:46:16;20.40;81.70
20672;DHT22;10495;50.922;4.760;2023-08-17T02:48:41;20.30;81.80
20672;DHT22;10495;50.922;4.760;2023-08-17T02:51:07;20.30;81.60
20672;DHT22;10495;50.922;4.760;2023-08-17T02:53:33;20.30;81.70
20672;DHT22;10495;50.922;4.760;2023-08-17T02:55:58;20.30;81.90
20672;DHT22;10495;50.922;4.760;2023-08-17T02:58:24;20.30;82.00
20672;DHT22;10495;50.922;4.760;2023-08-17T03:00:53;20.30;82.30
20672;DHT22;10495;50.922;4.760;2023-08-17T03:03:19;20.30;82.10
20672;DHT22;10495;50.922;4.760;2023-08-17T03:05:45;20.50;82.00
20672;DHT22;10495;50.922;4.760;2023-08-17T03:08:10;20.50;82.00
20672;DHT22;10495;50.922;4.760;2023-08-17T03:10:37;20.40;82.00
20672;DHT22;10495;50.922;4.760;2023-08-17T03:13:03;20.40;82.40
20672;DHT22;10495;50.922;4.760;2023-08-17T03:15:29;20.40;82.50
20672;DHT22;10495;50.922;4.760;2023-08-17T03:17:55;20.40;82.70
20672;DHT22;10495;50.922;4.760;2023-08-17T03:20:20;20.40;82.80
20672;DHT22;10495;50.922;4.760;2023-08-17T03:22:46;20.40;83.00
20672;DHT22;10495;50.922;4.760;2023-08-17T03:25:12;20.40;82.90
20672;DHT22;10495;50.922;4.760;2023-08-17T03:27:37;20.50;82.90
20672;DHT22;10495;50.922;4.760;2023-08-17T03:30:04;20.40;82.90
20672;DHT22;10495;50.922;4.760;2023-08-17T03:32:36;20.40;82.90
20672;DHT22;10495;50.922;4.760;2023-08-17T03:35:01;20.40;82.70
20672;DHT22;10495;50.922;4.760;2023-08-17T03:37:27;20.40;83.10
20672;DHT22;10495;50.922;4.760;2023-08-17T03:39:53;20.50;83.00
20672;DHT22;10495;50.922;4.760;2023-08-17T03:42:19;20.40;83.00
20672;DHT22;10495;50.922;4.760;2023-08-17T03:44:44;20.30;83.30
20672;DHT22;10495;50.922;4.760;2023-08-17T03:47:10;20.30;83.20
20672;DHT22;10495;50.922;4.760;2023-08-17T03:49:35;20.40;83.00
20672;DHT22;10495;50.922;4.760;2023-08-17T03:52:01;20.50;82.80
20672;DHT22;10495;50.922;4.760;2023-08-17T03:54:27;20.40;82.90
20672;DHT22;10495;50.922;4.760;2023-08-17T03:56:52;20.50;83.00
20672;DHT22;10495;50.922;4.760;2023-08-17T03:59:18;20.30;83.10
20672;DHT22;10495;50.922;4.760;2023-08-17T04:01:43;20.30;83.30
20672;DHT22;10495;50.922;4.760;2023-08-17T04:04:09;20.40;83.40
20672;DHT22;10495;50.922;4.760;2023-08-17T04:06:35;20.50;82.60
20672;DHT22;10495;50.922;4.760;2023-08-17T04:09:01;20.40;82.80
20672;DHT22;10495;50.922;4.760;2023-08-17T04:11:27;20.40;83.00
20672;DHT22;10495;50.922;4.760;2023-08-17T04:13:52;20.50;82.80
20672;DHT22;10495;50.922;4.760;2023-08-17T04:16:18;20.40;83.00
20672;DHT22;10495;50.922;4.760;2023-08-17T04:18:44;20.20;83.30
20672;DHT22;10495;50.922;4.760;2023-08-17T04:21:09;20.30;83.20
20672;DHT22;10495;50.922;4.760;2023-08-17T04:23:35;20.30;83.40
20672;DHT22;10495;50.922;4.760;2023-08-17T04:26:00;20.30;83.30
20672;DHT22;10495;50.922;4.760;2023-08-17T04:28:26;20.20;83.40
20672;DHT22;10495;50.922;4.760;2023-08-17T04:30:52;20.20;83.40
20672;DHT22;10495;50.922;4.760;2023-08-17T04:33:17;20.20;83.20
20672;DHT22;10495;50.922;4.760;2023-08-17T04:35:46;20.20;83.30
20672;DHT22;10495;50.922;4.760;2023-08-17T04:38:13;20.20;83.20
20672;DHT22;10495;50.922;4.760;2023-08-17T04:40:39;20.20;83.30
20672;DHT22;10495;50.922;4.760;2023-08-17T04:43:04;20.20;83.60
20672;DHT22;10495;50.922;4.760;2023-08-17T04:45:30;20.20;83.60
20672;DHT22;10495;50.922;4.760;2023-08-17T04:47:56;20.10;83.70
20672;DHT22;10495;50.922;4.760;2023-08-17T04:50:21;20.20;83.70
20672;DHT22;10495;50.922;4.760;2023-08-17T04:52:47;20.20;83.50
20672;DHT22;10495;50.922;4.760;2023-08-17T04:55:13;20.50;82.90
20672;DHT22;10495;50.922;4.760;2023-08-17T04:57:39;20.30;83.10
20672;DHT22;10495;50.922;4.760;2023-08-17T05:00:05;20.30;83.20
20672;DHT22;10495;50.922;4.760;2023-08-17T05:02:37;20.30;83.30
20672;DHT22;10495;50.922;4.760;2023-08-17T05:05:05;20.30;83.90
20672;DHT22;10495;50.922;4.760;2023-08-17T05:07:30;20.20;83.30
20672;DHT22;10495;50.922;4.760;2023-08-17T05:09:56;20.20;83.20
20672;DHT22;10495;50.922;4.760;2023-08-17T05:12:22;20.30;83.20
20672;DHT22;10495;50.922;4.760;2023-08-17T05:14:47;20.20;83.20
20672;DHT22;10495;50.922;4.760;2023-08-17T05:17:13;20.30;83.30
20672;DHT22;10495;50.922;4.760;2023-08-17T05:19:39;20.30;83.20
20672;DHT22;10495;50.922;4.760;2023-08-17T05:22:10;20.20;83.30
20672;DHT22;10495;50.922;4.760;2023-08-17T05:24:36;20.20;83.60
20672;DHT22;10495;50.922;4.760;2023-08-17T05:27:01;20.20;83.80
20672;DHT22;10495;50.922;4.760;2023-08-17T05:29:27;20.20;83.80
20672;DHT22;10495;50.922;4.760;2023-08-17T05:31:53;20.20;83.90
20672;DHT22;10495;50.922;4.760;2023-08-17T05:34:18;20.30;83.40
20672;DHT22;10495;50.922;4.760;2023-08-17T05:36:44;20.40;83.30
20672;DHT22;10495;50.922;4.760;2023-08-17T05:39:10;20.50;83.00
20672;DHT22;10495;50.922;4.760;2023-08-17T05:41:35;20.40;82.70
20672;DHT22;10495;50.922;4.760;2023-08-17T05:44:01;20.30;82.80
20672;DHT22;10495;50.922;4.760;2023-08-17T05:46:27;20.30;83.10
20672;DHT22;10495;50.922;4.760;2023-08-17T05:48:53;20.30;82.90
20672;DHT22;10495;50.922;4.760;2023-08-17T05:51:18;20.40;82.60
20672;DHT22;10495;50.922;4.760;2023-08-17T05:53:44;20.40;82.30
20672;DHT22;10495;50.922;4.760;2023-08-17T05:56:10;20.30;82.90
20672;DHT22;10495;50.922;4.760;2023-08-17T05:58:36;20.30;83.00
20672;DHT22;10495;50.922;4.760;2023-08-17T06:01:08;20.30;83.00
20672;DHT22;10495;50.922;4.760;2023-08-17T06:03:35;20.40;82.70
20672;DHT22;10495;50.922;4.760;2023-08-17T06:06:02;20.30;82.50
20672;DHT22;10495;50.922;4.760;2023-08-17T06:08:28;20.40;82.50
20672;DHT22;10495;50.922;4.760;2023-08-17T06:10:54;20.40;82.80
20672;DHT22;10495;50.922;4.760;2023-08-17T06:13:19;20.30;82.70
20672;DHT22;10495;50.922;4.760;2023-08-17T06:15:45;20.30;82.70
20672;DHT22;10495;50.922;4.760;2023-08-17T06:18:11;20.40;82.80
20672;DHT22;10495;50.922;4.760;2023-08-17T06:20:36;20.50;82.30
20672;DHT22;10495;50.922;4.760;2023-08-17T06:23:02;20.50;82.40
20672;DHT22;10495;50.922;4.760;2023-08-17T06:25:28;20.70;81.40
20672;DHT22;10495;50.922;4.760;2023-08-17T06:27:53;20.60;81.60
20672;DHT22;10495;50.922;4.760;2023-08-17T06:30:19;20.40;82.30
20672;DHT22;10495;50.922;4.760;2023-08-17T06:32:45;20.20;83.30
20672;DHT22;10495;50.922;4.760;2023-08-17T06:35:10;20.10;83.40
20672;DHT22;10495;50.922;4.760;2023-08-17T06:37:36;20.20;83.50
20672;DHT22;10495;50.922;4.760;2023-08-17T06:40:05;20.20;84.20
20672;DHT22;10495;50.922;4.760;2023-08-17T06:42:31;20.00;84.20
20672;DHT22;10495;50.922;4.760;2023-08-17T06:44:57;20.00;85.60
20672;DHT22;10495;50.922;4.760;2023-08-17T06:47:23;20.10;84.50
20672;DHT22;10495;50.922;4.760;2023-08-17T06:49:48;20.00;85.00
20672;DHT22;10495;50.922;4.760;2023-08-17T06:52:14;19.80;85.30
20672;DHT22;10495;50.922;4.760;2023-08-17T06:54:40;19.80;85.70
20672;DHT22;10495;50.922;4.760;2023-08-17T06:57:05;19.80;85.80
20672;DHT22;10495;50.922;4.760;2023-08-17T06:59:31;19.80;85.80
20672;DHT22;10495;50.922;4.760;2023-08-17T07:01:59;19.90;86.10
20672;DHT22;10495;50.922;4.760;2023-08-17T07:04:25;20.00;86.10
20672;DHT22;10495;50.922;4.760;2023-08-17T07:06:52;20.00;85.90
20672;DHT22;10495;50.922;4.760;2023-08-17T07:09:17;20.00;86.20
20672;DHT22;10495;50.922;4.760;2023-08-17T07:11:44;20.00;86.10
20672;DHT22;10495;50.922;4.760;2023-08-17T07:14:09;19.90;86.10
20672;DHT22;10495;50.922;4.760;2023-08-17T07:16:35;19.90;86.10
20672;DHT22;10495;50.922;4.760;2023-08-17T07:19:01;19.90;86.20
20672;DHT22;10495;50.922;4.760;2023-08-17T07:21:26;20.00;86.20
20672;DHT22;10495;50.922;4.760;2023-08-17T07:23:54;20.10;86.10
20672;DHT22;10495;50.922;4.760;2023-08-17T07:26:20;20.20;86.10
20672;DHT22;10495;50.922;4.760;2023-08-17T07:28:46;20.30;85.70
20672;DHT22;10495;50.922;4.760;2023-08-17T07:31:12;20.30;85.50
20672;DHT22;10495;50.922;4.760;2023-08-17T07:33:38;20.50;84.60
20672;DHT22;10495;50.922;4.760;2023-08-17T07:36:04;20.60;84.40
20672;DHT22;10495;50.922;4.760;2023-08-17T07:38:30;20.40;85.00
20672;DHT22;10495;50.922;4.760;2023-08-17T07:40:56;20.40;85.10
20672;DHT22;10495;50.922;4.760;2023-08-17T07:43:22;20.50;84.80
20672;DHT22;10495;50.922;4.760;2023-08-17T07:45:58;20.60;84.40
20672;DHT22;10495;50.922;4.760;2023-08-17T07:48:23;20.50;84.20
20672;DHT22;10495;50.922;4.760;2023-08-17T07:50:50;20.60;84.10
20672;DHT22;10495;50.922;4.760;2023-08-17T07:53:16;20.70;84.20
20672;DHT22;10495;50.922;4.760;2023-08-17T07:55:42;20.50;84.50
20672;DHT22;10495;50.922;4.760;2023-08-17T07:58:08;20.60;84.10
20672;DHT22;10495;50.922;4.760;2023-08-17T08:00:33;20.70;84.00
20672;DHT22;10495;50.922;4.760;2023-08-17T08:02:59;20.80;84.00
20672;DHT22;10495;50.922;4.760;2023-08-17T08:05:25;20.70;83.40
20672;DHT22;10495;50.922;4.760;2023-08-17T08:07:51;21.00;83.00
20672;DHT22;10495;50.922;4.760;2023-08-17T08:10:16;21.00;83.30
20672;DHT22;10495;50.922;4.760;2023-08-17T08:12:42;21.10;82.80
20672;DHT22;10495;50.922;4.760;2023-08-17T08:15:08;21.20;82.00
20672;DHT22;10495;50.922;4.760;2023-08-17T08:17:34;21.40;80.90
20672;DHT22;10495;50.922;4.760;2023-08-17T08:19:59;21.40;80.70
20672;DHT22;10495;50.922;4.760;2023-08-17T08:22:25;21.40;80.80
20672;DHT22;10495;50.922;4.760;2023-08-17T08:24:51;21.50;80.50
20672;DHT22;10495;50.922;4.760;2023-08-17T08:27:16;21.50;80.10
20672;DHT22;10495;50.922;4.760;2023-08-17T08:29:42;21.30;80.80
20672;DHT22;10495;50.922;4.760;2023-08-17T08:32:07;21.10;81.60
20672;DHT22;10495;50.922;4.760;2023-08-17T08:34:33;21.20;81.50
20672;DHT22;10495;50.922;4.760;2023-08-17T08:36:59;21.40;81.30
20672;DHT22;10495;50.922;4.760;2023-08-17T08:39:27;21.30;80.50
20672;DHT22;10495;50.922;4.760;2023-08-17T08:41:53;21.40;80.30
20672;DHT22;10495;50.922;4.760;2023-08-17T08:44:19;21.40;80.50
20672;DHT22;10495;50.922;4.760;2023-08-17T08:46:45;21.80;79.20
20672;DHT22;10495;50.922;4.760;2023-08-17T08:49:12;21.90;79.40
20672;DHT22;10495;50.922;4.760;2023-08-17T08:51:46;21.80;79.90
20672;DHT22;10495;50.922;4.760;2023-08-17T08:54:25;21.90;78.90
20672;DHT22;10495;50.922;4.760;2023-08-17T08:56:59;21.80;79.70
20672;DHT22;10495;50.922;4.760;2023-08-17T08:59:27;21.70;80.40
20672;DHT22;10495;50.922;4.760;2023-08-17T09:01:55;21.60;80.00
20672;DHT22;10495;50.922;4.760;2023-08-17T09:04:23;21.60;80.40
20672;DHT22;10495;50.922;4.760;2023-08-17T09:06:50;21.60;79.80
20672;DHT22;10495;50.922;4.760;2023-08-17T09:09:16;21.50;80.90
20672;DHT22;10495;50.922;4.760;2023-08-17T09:11:43;21.60;81.00
20672;DHT22;10495;50.922;4.760;2023-08-17T09:14:09;21.70;80.40
20672;DHT22;10495;50.922;4.760;2023-08-17T09:16:34;21.70;80.10
20672;DHT22;10495;50.922;4.760;2023-08-17T09:19:01;21.70;80.00
20672;DHT22;10495;50.922;4.760;2023-08-17T09:21:31;21.80;80.00
20672;DHT22;10495;50.922;4.760;2023-08-17T09:23:57;21.70;80.60
20672;DHT22;10495;50.922;4.760;2023-08-17T09:26:23;21.70;81.00
20672;DHT22;10495;50.922;4.760;2023-08-17T09:28:52;22.00;79.90
20672;DHT22;10495;50.922;4.760;2023-08-17T09:31:23;22.00;79.80
20672;DHT22;10495;50.922;4.760;2023-08-17T09:33:50;21.80;80.00
20672;DHT22;10495;50.922;4.760;2023-08-17T09:36:20;21.80;80.50
20672;DHT22;10495;50.922;4.760;2023-08-17T09:38:48;21.90;80.00
20672;DHT22;10495;50.922;4.760;2023-08-17T09:41:15;21.90;80.20
20672;DHT22;10495;50.922;4.760;2023-08-17T09:43:41;21.90;80.30
20672;DHT22;10495;50.922;4.760;2023-08-17T09:46:06;21.90;79.60
20672;DHT22;10495;50.922;4.760;2023-08-17T09:48:33;21.90;80.30
20672;DHT22;10495;50.922;4.760;2023-08-17T09:50:59;22.00;80.20
20672;DHT22;10495;50.922;4.760;2023-08-17T09:53:28;22.20;80.10
20672;DHT22;10495;50.922;4.760;2023-08-17T09:55:54;22.20;79.90
20672;DHT22;10495;50.922;4.760;2023-08-17T09:58:22;22.30;80.10
20672;DHT22;10495;50.922;4.760;2023-08-17T10:00:49;22.40;79.80
20672;DHT22;10495;50.922;4.760;2023-08-17T10:03:16;22.50;79.60
20672;DHT22;10495;50.922;4.760;2023-08-17T10:05:43;22.60;79.00
20672;DHT22;10495;50.922;4.760;2023-08-17T10:08:11;22.60;78.90
20672;DHT22;10495;50.922;4.760;2023-08-17T10:10:42;22.70;79.30
20672;DHT22;10495;50.922;4.760;2023-08-17T10:16:08;23.00;77.80
20672;DHT22;10495;50.922;4.760;2023-08-17T10:21:15;23.20;78.00
20672;DHT22;10495;50.922;4.760;2023-08-17T10:23:44;23.20;77.20
20672;DHT22;10495;50.922;4.760;2023-08-17T10:26:11;23.20;77.30
20672;DHT22;10495;50.922;4.760;2023-08-17T10:28:38;22.90;77.70
20672;DHT22;10495;50.922;4.760;2023-08-17T10:31:04;23.10;77.70
20672;DHT22;10495;50.922;4.760;2023-08-17T10:33:31;23.00;78.30
20672;DHT22;10495;50.922;4.760;2023-08-17T10:35:57;23.00;78.30
20672;DHT22;10495;50.922;4.760;2023-08-17T10:38:23;23.00;78.40
20672;DHT22;10495;50.922;4.760;2023-08-17T10:43:34;23.10;78.20
20672;DHT22;10495;50.922;4.760;2023-08-17T10:46:15;23.10;77.70
20672;DHT22;10495;50.922;4.760;2023-08-17T10:48:44;23.20;77.30
20672;DHT22;10495;50.922;4.760;2023-08-17T10:51:10;23.40;77.80
20672;DHT22;10495;50.922;4.760;2023-08-17T10:53:40;23.30;77.20
20672;DHT22;10495;50.922;4.760;2023-08-17T10:56:12;23.20;78.20
20672;DHT22;10495;50.922;4.760;2023-08-17T10:58:39;23.20;78.30
20672;DHT22;10495;50.922;4.760;2023-08-17T11:01:06;23.10;78.00
20672;DHT22;10495;50.922;4.760;2023-08-17T11:03:32;23.10;78.10
20672;DHT22;10495;50.922;4.760;2023-08-17T11:06:14;23.00;78.80
20672;DHT22;10495;50.922;4.760;2023-08-17T11:08:51;22.80;79.40
20672;DHT22;10495;50.922;4.760;2023-08-17T11:11:20;23.00;79.30
20672;DHT22;10495;50.922;4.760;2023-08-17T11:13:47;22.80;79.10
20672;DHT22;10495;50.922;4.760;2023-08-17T11:16:16;23.10;77.90
20672;DHT22;10495;50.922;4.760;2023-08-17T11:18:45;23.00;78.30
20672;DHT22;10495;50.922;4.760;2023-08-17T11:21:11;23.00;79.30
20672;DHT22;10495;50.922;4.760;2023-08-17T11:23:37;22.90;78.70
20672;DHT22;10495;50.922;4.760;2023-08-17T11:26:03;23.00;79.10
20672;DHT22;10495;50.922;4.760;2023-08-17T11:28:33;22.90;78.60
20672;DHT22;10495;50.922;4.760;2023-08-17T11:31:03;23.20;78.60
20672;DHT22;10495;50.922;4.760;2023-08-17T11:33:30;23.20;78.40
20672;DHT22;10495;50.922;4.760;2023-08-17T11:36:00;23.10;78.70
20672;DHT22;10495;50.922;4.760;2023-08-17T11:38:30;23.30;78.30
20672;DHT22;10495;50.922;4.760;2023-08-17T11:40:58;23.50;78.30
20672;DHT22;10495;50.922;4.760;2023-08-17T11:43:24;23.50;78.80
20672;DHT22;10495;50.922;4.760;2023-08-17T11:45:50;23.60;77.60
20672;DHT22;10495;50.922;4.760;2023-08-17T11:48:19;23.80;77.70
20672;DHT22;10495;50.922;4.760;2023-08-17T11:50:44;24.00;76.50
20672;DHT22;10495;50.922;4.760;2023-08-17T11:53:10;23.80;77.30
20672;DHT22;10495;50.922;4.760;2023-08-17T11:55:36;23.80;77.60
20672;DHT22;10495;50.922;4.760;2023-08-17T11:58:03;23.80;77.60
20672;DHT22;10495;50.922;4.760;2023-08-17T12:00:44;23.80;77.70
20672;DHT22;10495;50.922;4.760;2023-08-17T12:03:15;23.80;77.20
20672;DHT22;10495;50.922;4.760;2023-08-17T12:05:42;23.80;77.00
20672;DHT22;10495;50.922;4.760;2023-08-17T12:08:09;23.60;76.60
20672;DHT22;10495;50.922;4.760;2023-08-17T12:10:36;23.60;77.10
20672;DHT22;10495;50.922;4.760;2023-08-17T12:13:01;23.70;77.90
20672;DHT22;10495;50.922;4.760;2023-08-17T12:15:31;23.60;77.70
20672;DHT22;10495;50.922;4.760;2023-08-17T12:18:00;23.50;77.20
20672;DHT22;10495;50.922;4.760;2023-08-17T12:20:26;23.50;78.10
20672;DHT22;10495;50.922;4.760;2023-08-17T12:22:52;23.50;78.30
20672;DHT22;10495;50.922;4.760;2023-08-17T12:25:21;23.50;78.20
20672;DHT22;10495;50.922;4.760;2023-08-17T12:27:48;23.60;78.20
20672;DHT22;10495;50.922;4.760;2023-08-17T12:30:26;23.50;78.20
20672;DHT22;10495;50.922;4.760;2023-08-17T12:32:52;23.60;78.80
20672;DHT22;10495;50.922;4.760;2023-08-17T12:35:17;23.60;79.20
20672;DHT22;10495;50.922;4.760;2023-08-17T12:37:44;23.80;78.60
20672;DHT22;10495;50.922;4.760;2023-08-17T12:40:10;24.00;76.70
20672;DHT22;10495;50.922;4.760;2023-08-17T12:42:36;24.00;76.70
20672;DHT22;10495;50.922;4.760;2023-08-17T12:45:01;23.90;77.10
20672;DHT22;10495;50.922;4.760;2023-08-17T12:47:27;24.10;76.20
20672;DHT22;10495;50.922;4.760;2023-08-17T12:49:53;24.00;76.80
20672;DHT22;10495;50.922;4.760;2023-08-17T12:52:18;24.10;76.90
20672;DHT22;10495;50.922;4.760;2023-08-17T12:54:44;23.90;76.60
20672;DHT22;10495;50.922;4.760;2023-08-17T12:57:10;23.60;77.60
20672;DHT22;10495;50.922;4.760;2023-08-17T12:59:35;23.60;77.80
20672;DHT22;10495;50.922;4.760;2023-08-17T13:02:01;23.60;78.30
20672;DHT22;10495;50.922;4.760;2023-08-17T13:04:26;23.60;78.60
20672;DHT22;10495;50.922;4.760;2023-08-17T13:06:52;23.80;78.60
20672;DHT22;10495;50.922;4.760;2023-08-17T13:09:19;23.80;78.30
20672;DHT22;10495;50.922;4.760;2023-08-17T13:11:45;23.80;77.60
20672;DHT22;10495;50.922;4.760;2023-08-17T13:14:12;23.80;78.40
20672;DHT22;10495;50.922;4.760;2023-08-17T13:16:38;23.90;77.10
20672;DHT22;10495;50.922;4.760;2023-08-17T13:19:03;23.80;77.90
20672;DHT22;10495;50.922;4.760;2023-08-17T13:21:29;23.60;78.30
20672;DHT22;10495;50.922;4.760;2023-08-17T13:23:55;23.60;78.00
20672;DHT22;10495;50.922;4.760;2023-08-17T13:26:22;23.60;78.00
20672;DHT22;10495;50.922;4.760;2023-08-17T13:28:47;23.60;77.90
20672;DHT22;10495;50.922;4.760;2023-08-17T13:31:13;23.30;78.60
20672;DHT22;10495;50.922;4.760;2023-08-17T13:33:39;23.40;78.50
20672;DHT22;10495;50.922;4.760;2023-08-17T13:36:04;23.50;78.60
20672;DHT22;10495;50.922;4.760;2023-08-17T13:38:30;23.50;78.40
20672;DHT22;10495;50.922;4.760;2023-08-17T13:40:57;23.30;78.60
20672;DHT22;10495;50.922;4.760;2023-08-17T13:43:22;23.10;79.60
20672;DHT22;10495;50.922;4.760;2023-08-17T13:45:48;23.30;79.40
20672;DHT22;10495;50.922;4.760;2023-08-17T13:48:14;23.60;78.30
20672;DHT22;10495;50.922;4.760;2023-08-17T13:50:40;23.50;78.90
20672;DHT22;10495;50.922;4.760;2023-08-17T13:53:06;23.50;79.10
20672;DHT22;10495;50.922;4.760;2023-08-17T13:55:31;23.80;77.50
20672;DHT22;10495;50.922;4.760;2023-08-17T13:57:58;23.70;78.40
20672;DHT22;10495;50.922;4.760;2023-08-17T14:00:24;23.80;78.30
20672;DHT22;10495;50.922;4.760;2023-08-17T14:02:50;24.00;77.30
20672;DHT22;10495;50.922;4.760;2023-08-17T14:05:16;24.20;76.10
20672;DHT22;10495;50.922;4.760;2023-08-17T14:07:42;23.90;77.10
20672;DHT22;10495;50.922;4.760;2023-08-17T14:10:08;23.80;77.00
20672;DHT22;10495;50.922;4.760;2023-08-17T14:12:34;23.80;77.40
20672;DHT22;10495;50.922;4.760;2023-08-17T14:15:00;23.50;78.10
20672;DHT22;10495;50.922;4.760;2023-08-17T14:17:25;23.70;77.30
20672;DHT22;10495;50.922;4.760;2023-08-17T14:19:51;23.90;77.20
20672;DHT22;10495;50.922;4.760;2023-08-17T14:22:17;24.10;76.70
20672;DHT22;10495;50.922;4.760;2023-08-17T14:24:42;24.10;76.50
20672;DHT22;10495;50.922;4.760;2023-08-17T14:27:08;24.30;76.50
20672;DHT22;10495;50.922;4.760;2023-08-17T14:29:34;24.10;76.90
20672;DHT22;10495;50.922;4.760;2023-08-17T14:31:59;24.10;76.80
20672;DHT22;10495;50.922;4.760;2023-08-17T14:34:25;24.20;76.70
20672;DHT22;10495;50.922;4.760;2023-08-17T14:36:51;24.30;76.00
20672;DHT22;10495;50.922;4.760;2023-08-17T14:39:17;24.40;75.90
20672;DHT22;10495;50.922;4.760;2023-08-17T14:41:42;24.20;76.30
20672;DHT22;10495;50.922;4.760;2023-08-17T14:44:08;24.30;76.40
20672;DHT22;10495;50.922;4.760;2023-08-17T14:46:34;24.50;75.50
20672;DHT22;10495;50.922;4.760;2023-08-17T14:49:00;24.40;75.50
20672;DHT22;10495;50.922;4.760;2023-08-17T14:51:28;24.10;76.20
20672;DHT22;10495;50.922;4.760;2023-08-17T14:53:54;24.30;75.90
20672;DHT22;10495;50.922;4.760;2023-08-17T14:56:20;24.20;76.30
20672;DHT22;10495;50.922;4.760;2023-08-17T14:58:46;24.10;76.90
20672;DHT22;10495;50.922;4.760;2023-08-17T15:01:11;24.10;77.00
20672;DHT22;10495;50.922;4.760;2023-08-17T15:03:37;24.30;77.20
20672;DHT22;10495;50.922;4.760;2023-08-17T15:06:06;24.50;76.40
20672;DHT22;10495;50.922;4.760;2023-08-17T15:08:32;24.60;76.10
20672;DHT22;10495;50.922;4.760;2023-08-17T15:10:57;24.50;76.00
20672;DHT22;10495;50.922;4.760;2023-08-17T15:13:27;24.50;76.40
20672;DHT22;10495;50.922;4.760;2023-08-17T15:15:53;24.60;76.10
20672;DHT22;10495;50.922;4.760;2023-08-17T15:18:18;24.50;76.70
20672;DHT22;10495;50.922;4.760;2023-08-17T15:20:44;24.60;75.80
20672;DHT22;10495;50.922;4.760;2023-08-17T15:23:10;24.50;75.80
20672;DHT22;10495;50.922;4.760;2023-08-17T15:25:35;24.50;76.00
20672;DHT22;10495;50.922;4.760;2023-08-17T15:28:01;24.30;76.50
20672;DHT22;10495;50.922;4.760;2023-08-17T15:30:27;24.20;77.20
20672;DHT22;10495;50.922;4.760;2023-08-17T15:32:52;24.20;77.20
20672;DHT22;10495;50.922;4.760;2023-08-17T15:35:18;24.20;77.10
20672;DHT22;10495;50.922;4.760;2023-08-17T15:37:44;24.40;76.60
20672;DHT22;10495;50.922;4.760;2023-08-17T15:40:09;24.40;76.60
20672;DHT22;10495;50.922;4.760;2023-08-17T15:42:36;24.30;76.50